Time;durP1;ratioP1;P1;durP2;ratioP2;P2;SDS_P1;SDS_P2;PMS_P1;PMS_P2;Temp;Humidity;BMP_temperature;BMP_pressure;BME280_temperature;BME280_humidity;BME280_pressure;Samples;Min_cycle;Max_cycle;Signal;HPM_P1;HPM_P2
2023/04/08 00:00:32;;;;;;;81.78;76.00;;;;;;;4.73;79.44;100867.23;1722998;83;25419;-52
2023/04/08 00:03:02;;;;;;;84.75;78.62;;;;;;;4.73;79.45;100867.23;1762945;81;25548;-50
2023/04/08 00:05:29;;;;;;;83.33;77.35;;;;;;;4.73;79.38;100872.60;1730812;82;25603;-50
2023/04/08 00:07:55;;;;;;;84.22;77.85;;;;;;;4.73;79.54;100869.92;1730770;82;27307;-49
2023/04/08 00:10:21;;;;;;;83.58;77.53;;;;;;;4.73;79.35;100874.73;1730646;82;25846;-51
2023/04/08 00:12:48;;;;;;;82.35;76.42;;;;;;;4.73;79.36;100873.40;1730781;82;25409;-49
2023/04/08 00:15:15;;;;;;;83.78;77.75;;;;;;;4.72;79.46;100870.46;1730748;82;25560;-49
2023/04/08 00:17:42;;;;;;;83.50;77.37;;;;;;;4.72;79.39;100870.46;1730775;82;25693;-49
2023/04/08 00:20:10;;;;;;;84.40;78.42;;;;;;;4.71;79.41;100873.39;1730764;82;28042;-49
2023/04/08 00:22:37;;;;;;;86.32;80.03;;;;;;;4.72;79.36;100872.34;1730676;82;25409;-49
2023/04/08 00:25:08;;;;;;;84.70;78.50;;;;;;;4.72;79.65;100873.69;1730727;82;25413;-49
2023/04/08 00:27:36;;;;;;;84.00;77.72;;;;;;;4.72;79.56;100879.05;1730765;82;25588;-49
2023/04/08 00:30:05;;;;;;;84.85;78.57;;;;;;;4.71;79.61;100870.72;1702184;82;25497;-51
2023/04/08 00:32:32;;;;;;;83.47;77.37;;;;;;;4.71;79.65;100877.41;1730887;82;27275;-50
2023/04/08 00:34:59;;;;;;;84.07;77.95;;;;;;;4.71;79.60;100875.53;1730605;82;25630;-50
2023/04/08 00:37:27;;;;;;;83.87;77.70;;;;;;;4.72;79.53;100875.02;1730776;82;25473;-49
2023/04/08 00:39:54;;;;;;;85.42;79.10;;;;;;;4.70;79.41;100873.94;1701725;82;26276;-48
2023/04/08 00:42:22;;;;;;;82.10;76.20;;;;;;;4.69;79.18;100866.95;1730749;82;25603;-50
2023/04/08 00:44:49;;;;;;;85.03;78.75;;;;;;;4.66;79.05;100879.51;1730723;82;27440;-49
2023/04/08 00:47:17;;;;;;;83.92;77.82;;;;;;;4.63;78.72;100874.66;1730674;82;25675;-49
2023/04/08 00:49:44;;;;;;;83.78;77.90;;;;;;;4.59;78.73;100874.90;1725969;82;25466;-49
2023/04/08 00:52:12;;;;;;;84.90;78.70;;;;;;;4.55;78.74;100878.63;1730683;82;25706;-49
2023/04/08 00:54:40;;;;;;;84.28;78.20;;;;;;;4.51;78.71;100888.20;1730788;82;25434;-50
2023/04/08 00:57:08;;;;;;;84.83;78.72;;;;;;;4.47;78.67;100889.80;1730812;82;27323;-49
2023/04/08 00:59:35;;;;;;;84.00;77.80;;;;;;;4.42;78.54;100890.55;1730811;82;25639;-49
2023/04/08 01:02:22;;;;;;;85.17;78.87;;;;;;;4.39;78.55;100891.07;1723790;82;25848;-48
2023/04/08 01:05:01;;;;;;;85.75;79.50;;;;;;;4.34;78.57;100896.34;1701313;84;25675;-49
2023/04/08 01:07:37;;;;;;;13.55;8.40;;;;;;;4.29;78.44;100894.95;1687482;85;25414;-49
2023/04/08 01:10:33;;;;;;;26.62;24.32;;;;;;;4.26;78.68;100890.92;1702699;84;29612;-53
2023/04/08 01:13:09;;;;;;;84.28;78.07;;;;;;;4.21;78.65;100896.77;1702779;83;25693;-52
2023/04/08 01:15:39;;;;;;;84.42;78.25;;;;;;;4.15;78.70;100897.76;1702810;84;25474;-49
2023/04/08 01:18:12;;;;;;;84.72;78.52;;;;;;;4.08;78.51;100901.42;1702665;84;25763;-49
2023/04/08 01:20:41;;;;;;;84.80;78.70;;;;;;;4.03;78.59;100903.25;1702714;84;25586;-51
2023/04/08 01:23:19;;;;;;;85.75;79.40;;;;;;;3.94;78.54;100892.17;1665359;85;27406;-50
2023/04/08 01:25:54;;;;;;;84.87;78.67;;;;;;;3.87;78.39;100901.73;1687329;85;25537;-50
2023/04/08 01:28:24;;;;;;;85.10;78.80;;;;;;;3.80;78.58;100897.09;1687388;85;25423;-49
2023/04/08 01:30:56;;;;;;;87.22;80.57;;;;;;;3.73;78.77;100897.81;1688716;85;25968;-49
2023/04/08 01:33:23;;;;;;;86.15;79.67;;;;;;;3.63;78.75;100889.13;1702695;84;25638;-49
2023/04/08 01:35:51;;;;;;;87.05;80.67;;;;;;;3.54;78.64;100894.09;1702662;83;26951;-49
2023/04/08 01:38:21;;;;;;;86.55;79.95;;;;;;;3.43;78.57;100891.52;1702555;84;25382;-50
2023/04/08 01:40:47;;;;;;;;;;;;;;;3.32;78.81;100895.39;1705200;84;25391;-49
2023/04/08 01:43:17;;;;;;;81.67;75.55;;;;;;;3.24;78.62;100910.51;1702606;84;25740;-50
2023/04/08 01:45:45;;;;;;;22.32;19.90;;;;;;;3.14;79.19;100915.17;1702776;84;25382;-50
2023/04/08 01:48:14;;;;;;;9.53;5.78;;;;;;;3.05;79.44;100908.63;1702894;84;27401;-50
2023/04/08 01:50:43;;;;;;;8.33;5.15;;;;;;;2.95;79.57;100907.92;1702715;84;25415;-48
2023/04/08 01:53:11;;;;;;;17.25;8.88;;;;;;;2.84;79.42;100913.34;1687643;85;25650;-49
2023/04/08 01:55:41;;;;;;;16.23;8.70;;;;;;;2.70;79.60;100912.84;1680584;84;25734;-48
2023/04/08 01:58:10;;;;;;;17.02;9.83;;;;;;;2.58;79.74;100923.05;1687425;85;25639;-48
2023/04/08 02:00:38;;;;;;;;;;;;;;;2.47;80.15;100918.60;1705194;84;27531;-50
2023/04/08 02:03:07;;;;;;;15.72;8.90;;;;;;;2.40;80.41;100919.25;1686937;85;25578;-49
2023/04/08 02:05:34;;;;;;;16.70;8.83;;;;;;;2.30;80.48;100924.40;1712350;83;25386;-48
2023/04/08 02:08:00;;;;;;;14.45;8.05;;;;;;;2.18;80.67;100923.94;1748151;82;26313;-49
2023/04/08 02:10:26;;;;;;;21.23;9.88;;;;;;;2.10;80.93;100922.16;1712242;83;25455;-49
2023/04/08 02:12:54;;;;;;;17.80;8.93;;;;;;;2.05;81.32;100924.20;1743474;82;27761;-48
2023/04/08 02:15:21;;;;;;;13.38;8.75;;;;;;;2.00;81.53;100932.91;1712154;83;25524;-48
2023/04/08 02:17:51;;;;;;;16.35;9.35;;;;;;;1.94;81.67;100935.20;1748211;81;25582;-49
2023/04/08 02:20:31;;;;;;;19.07;9.95;;;;;;;1.89;81.91;100931.09;1712255;83;25628;-49
2023/04/08 02:23:18;;;;;;;16.25;9.13;;;;;;;1.84;82.16;100930.45;1748273;82;25460;-50
2023/04/08 02:25:46;;;;;;;21.93;10.88;;;;;;;1.80;82.42;100934.63;1712339;83;26767;-50
2023/04/08 02:28:15;;;;;;;20.00;10.93;;;;;;;1.73;82.29;100935.28;1743588;82;25483;-49
2023/04/08 02:30:45;;;;;;;20.30;9.60;;;;;;;1.65;82.33;100944.97;1654879;83;25677;-51
2023/04/08 02:33:13;;;;;;;16.15;8.85;;;;;;;1.58;82.42;100942.95;1747946;82;26204;-52
2023/04/08 02:35:41;;;;;;;16.52;9.30;;;;;;;1.47;82.50;100938.72;1707787;83;25627;-52
2023/04/08 02:38:09;;;;;;;18.65;9.33;;;;;;;1.40;82.77;100942.03;1718898;82;27389;-52
2023/04/08 02:40:37;;;;;;;14.73;8.23;;;;;;;1.32;82.92;100945.03;1684292;83;25609;-51
2023/04/08 02:43:04;;;;;;;19.45;10.28;;;;;;;1.23;83.13;100947.23;1748207;82;25382;-49
2023/04/08 02:45:41;;;;;;;19.95;10.45;;;;;;;1.19;83.29;100946.59;1712220;83;25782;-49
2023/04/08 02:48:08;;;;;;;16.02;9.15;;;;;;;1.13;83.39;100950.19;1747621;82;25643;-66
2023/04/08 02:50:35;;;;;;;16.52;9.33;;;;;;;1.08;83.69;100954.86;1712238;83;27320;-50
2023/04/08 02:53:02;;;;;;;20.27;9.68;;;;;;;1.03;84.04;100953.41;1748115;82;25434;-49
2023/04/08 02:55:29;;;;;;;15.80;8.85;;;;;;;1.01;84.25;100955.49;1712244;83;25402;-49
2023/04/08 02:57:55;;;;;;;16.75;9.28;;;;;;;0.99;84.37;100958.38;1748154;81;25649;-49
2023/04/08 03:00:22;;;;;;;18.57;9.68;;;;;;;0.97;84.75;100966.30;1712236;83;25443;-50
2023/04/08 03:02:48;;;;;;;15.20;8.70;;;;;;;0.93;84.67;100965.95;1744453;82;27918;-51
2023/04/08 03:05:15;;;;;;;17.57;9.40;;;;;;;0.92;85.03;100965.67;1702510;83;25622;-50
2023/04/08 03:07:42;;;;;;;16.67;8.88;;;;;;;0.90;85.07;100971.23;1687331;85;25502;-49
2023/04/08 03:10:10;;;;;;;16.60;9.23;;;;;;;0.89;85.17;100970.12;1702611;83;25861;-50
2023/04/08 03:12:36;;;;;;;17.15;9.05;;;;;;;0.85;85.05;100980.42;1687305;85;25654;-49
2023/04/08 03:15:03;;;;;;;17.55;9.33;;;;;;;0.81;85.12;100979.23;1702576;84;27482;-49
2023/04/08 03:17:32;;;;;;;17.98;9.35;;;;;;;0.78;85.06;100979.68;1641419;85;25597;-50
2023/04/08 03:19:58;;;;;;;19.27;9.90;;;;;;;0.74;85.09;100974.52;1702541;83;25450;-49
2023/04/08 03:22:25;;;;;;;24.18;12.40;;;;;;;0.72;85.31;100973.95;1702546;83;25640;-49
2023/04/08 03:24:51;;;;;;;26.77;13.15;;;;;;;0.71;85.44;100978.44;1702538;84;25573;-51
2023/04/08 03:27:17;;;;;;;23.15;12.03;;;;;;;0.69;85.50;100980.52;1702558;84;27424;-49
2023/04/08 03:29:45;;;;;;;16.95;9.38;;;;;;;0.67;85.58;100986.59;1702436;84;25848;-49
2023/04/08 03:32:12;;;;;;;19.20;10.20;;;;;;;0.65;85.73;100983.88;1687310;85;25582;-49
2023/04/08 03:34:38;;;;;;;21.95;10.60;;;;;;;0.62;85.53;100989.13;1687236;85;27795;-48
2023/04/08 03:37:04;;;;;;;19.42;10.05;;;;;;;0.57;85.46;100988.19;1687356;85;32296;-48
2023/04/08 03:39:32;;;;;;;20.25;9.68;;;;;;;0.50;85.26;100990.93;1665455;85;27411;-48
2023/04/08 03:41:59;;;;;;;21.35;10.13;;;;;;;0.46;85.43;100984.41;1702448;84;25553;-49
2023/04/08 03:44:26;;;;;;;19.82;10.10;;;;;;;0.42;85.43;100987.24;1702580;84;25474;-49
2023/04/08 03:46:53;;;;;;;21.23;9.93;;;;;;;0.37;85.40;100986.58;1702517;84;25596;-49
2023/04/08 03:49:19;;;;;;;16.30;9.43;;;;;;;0.32;85.38;100995.75;1687348;85;25431;-50
2023/04/08 03:51:45;;;;;;;19.48;9.83;;;;;;;0.28;85.42;101002.04;1702544;84;27445;-48
2023/04/08 03:54:12;;;;;;;26.00;11.83;;;;;;;0.22;85.43;101008.23;1687181;85;25576;-48
2023/04/08 03:56:38;;;;;;;60.30;25.45;;;;;;;0.16;85.65;101000.63;1688406;85;25690;-49
2023/04/08 03:59:05;;;;;;;84.58;35.00;;;;;;;0.12;85.78;101006.61;1702524;84;25617;-48
2023/04/08 04:01:31;;;;;;;80.70;34.65;;;;;;;0.07;85.97;101003.31;1702553;83;25623;-51
2023/04/08 04:03:58;;;;;;;57.93;24.05;;;;;;;0.03;86.07;101006.09;1702504;84;29521;-49
2023/04/08 04:06:25;;;;;;;65.03;27.15;;;;;;;-0.02;86.17;101000.63;1680414;84;25498;-49
2023/04/08 04:08:54;;;;;;;84.95;32.58;;;;;;;-0.05;86.21;101013.87;1702562;84;25458;-48
2023/04/08 04:11:21;;;;;;;45.88;22.48;;;;;;;-0.09;86.25;101013.99;1702660;84;25645;-48
2023/04/08 04:13:48;;;;;;;27.20;15.08;;;;;;;-0.13;86.36;101014.15;1702590;84;25488;-49
2023/04/08 04:16:15;;;;;;;26.05;12.60;;;;;;;-0.16;86.54;101019.09;1680391;84;27415;-49
2023/04/08 04:18:41;;;;;;;22.87;12.90;;;;;;;-0.18;86.83;101020.64;1702429;84;25646;-48
2023/04/08 04:21:08;;;;;;;30.12;11.68;;;;;;;-0.18;87.06;101021.97;1702525;84;25419;-50
2023/04/08 04:23:34;;;;;;;21.45;10.82;;;;;;;-0.19;87.24;101022.99;1702530;84;25665;-49
2023/04/08 04:26:01;;;;;;;21.20;11.40;;;;;;;-0.18;87.43;101026.48;1702593;84;25449;-53
2023/04/08 04:28:28;;;;;;;18.55;10.32;;;;;;;-0.19;87.67;101028.31;1702571;84;27414;-53
2023/04/08 04:30:54;;;;;;;18.90;9.60;;;;;;;-0.18;87.74;101026.48;1702477;84;25543;-52
2023/04/08 04:33:21;;;;;;;17.65;9.78;;;;;;;-0.18;88.03;101031.28;1702731;84;25430;-53
2023/04/08 04:35:48;;;;;;;16.50;9.40;;;;;;;-0.15;88.12;101032.17;1687415;85;25746;-50
2023/04/08 04:38:15;;;;;;;17.10;9.70;;;;;;;-0.12;88.37;101034.90;1677540;84;25505;-50
2023/04/08 04:40:41;;;;;;;18.67;9.40;;;;;;;-0.11;88.42;101037.34;1702687;84;27295;-49
2023/04/08 04:43:07;;;;;;;19.02;9.13;;;;;;;-0.09;88.73;101041.11;1699838;84;25643;-49
2023/04/08 04:45:34;;;;;;;19.35;9.10;;;;;;;-0.04;88.91;101042.59;1687404;85;25609;-48
2023/04/08 04:48:01;;;;;;;17.45;8.35;;;;;;;0.00;89.21;101041.14;1702618;84;25663;-49
2023/04/08 04:50:27;;;;;;;19.23;9.45;;;;;;;0.04;89.38;101044.98;1687461;85;25616;-49
2023/04/08 04:52:53;;;;;;;16.62;8.75;;;;;;;0.10;89.58;101044.60;1702707;84;27337;-51
2023/04/08 04:55:21;;;;;;;17.55;9.45;;;;;;;0.16;89.73;101047.72;1687327;85;25595;-49
2023/04/08 04:57:50;;;;;;;17.07;9.63;;;;;;;0.20;89.80;101044.91;1702684;84;25426;-51
2023/04/08 05:00:16;;;;;;;17.17;9.50;;;;;;;0.25;89.79;101049.05;1687564;85;26504;-49
2023/04/08 05:02:43;;;;;;;17.07;8.85;;;;;;;0.33;89.96;101059.40;1702716;84;25600;-50
2023/04/08 05:05:09;;;;;;;20.60;9.85;;;;;;;0.41;90.11;101056.97;1659460;85;27355;-49
2023/04/08 05:07:37;;;;;;;19.80;10.40;;;;;;;0.47;90.29;101063.25;1712278;83;25466;-50
2023/04/08 05:10:06;;;;;;;20.40;9.55;;;;;;;0.54;90.32;101063.97;1712361;83;25591;-49
2023/04/08 05:12:32;;;;;;;15.58;8.98;;;;;;;0.62;90.58;101061.02;1718800;82;25664;-50
2023/04/08 05:15:00;;;;;;;19.00;10.03;;;;;;;0.71;90.87;101063.66;1712361;83;25581;-48
2023/04/08 05:17:28;;;;;;;21.42;10.93;;;;;;;0.79;91.03;101066.54;1712321;83;27310;-49
2023/04/08 05:19:55;;;;;;;25.68;11.18;;;;;;;0.89;91.37;101069.48;1712226;83;25400;-50
2023/04/08 05:22:22;;;;;;;18.27;9.95;;;;;;;1.00;91.49;101070.55;1748255;82;25571;-49
2023/04/08 05:24:49;;;;;;;19.20;9.13;;;;;;;1.10;91.65;101068.16;1712295;83;25806;-51
2023/04/08 05:27:16;;;;;;;21.90;11.15;;;;;;;1.21;91.87;101071.09;1748276;81;25571;-53
2023/04/08 05:29:43;;;;;;;20.92;10.38;;;;;;;1.33;92.06;101066.63;1712311;83;29503;-51
2023/04/08 05:32:09;;;;;;;23.62;10.95;;;;;;;1.45;92.22;101063.98;1748176;82;25553;-55
2023/04/08 05:34:35;;;;;;;27.02;11.68;;;;;;;1.58;92.46;101067.75;1712370;83;25599;-53
2023/04/08 05:37:02;;;;;;;25.10;11.60;;;;;;;1.71;92.59;101072.59;1712308;83;25621;-50
2023/04/08 05:39:29;;;;;;;21.73;10.58;;;;;;;1.84;92.70;101073.72;1748253;82;25385;-50
2023/04/08 05:41:56;;;;;;;23.10;11.00;;;;;;;1.99;92.66;101075.90;1712294;83;27788;-49
2023/04/08 05:44:22;;;;;;;24.43;11.85;;;;;;;2.13;92.68;101073.80;1712284;83;27295;-50
2023/04/08 05:46:49;;;;;;;23.42;10.95;;;;;;;2.30;92.91;101081.91;1707775;83;25506;-49
2023/04/08 05:49:16;;;;;;;25.70;11.35;;;;;;;2.47;92.96;101085.51;1712265;83;25632;-53
2023/04/08 05:51:42;;;;;;;24.25;11.93;;;;;;;2.64;92.70;101090.93;1712300;83;25670;-52
2023/04/08 05:54:09;;;;;;;23.62;10.95;;;;;;;2.82;92.55;101081.11;1712303;83;27345;-49
2023/04/08 05:56:36;;;;;;;19.52;10.78;;;;;;;3.05;92.58;101085.54;1712325;83;25616;-51
2023/04/08 05:59:03;;;;;;;23.65;12.43;;;;;;;3.28;92.50;101096.12;1748294;82;25394;-51
2023/04/08 06:01:30;;;;;;;21.07;10.78;;;;;;;3.50;91.72;101094.91;1684269;83;25692;-49
2023/04/08 06:03:57;;;;;;;20.82;11.60;;;;;;;3.76;91.75;101092.64;1708901;83;25571;-52
2023/04/08 06:06:25;;;;;;;23.65;12.70;;;;;;;4.02;91.57;101090.35;1702590;83;28365;-50
2023/04/08 06:08:52;;;;;;;20.95;11.35;;;;;;;4.28;91.79;101090.20;1702545;84;25565;-51
2023/04/08 06:11:19;;;;;;;18.55;10.45;;;;;;;4.59;90.98;101100.78;1702625;84;25414;-52
2023/04/08 06:13:45;;;;;;;21.10;10.78;;;;;;;4.86;90.05;101094.67;1702600;84;26464;-49
2023/04/08 06:16:16;;;;;;;21.30;10.55;;;;;;;5.16;89.78;101096.05;1702660;84;25412;-50
2023/04/08 06:18:42;;;;;;;20.48;10.10;;;;;;;5.42;88.42;101094.44;1702652;84;27353;-50
2023/04/08 06:21:10;;;;;;;18.65;9.75;;;;;;;5.72;87.95;101098.43;1702565;83;25580;-50
2023/04/08 06:23:37;;;;;;;16.32;9.70;;;;;;;6.05;87.45;101096.03;1687383;85;25617;-50
2023/04/08 06:26:05;;;;;;;21.80;11.05;;;;;;;6.37;86.87;101096.49;1702541;84;26477;-50
2023/04/08 06:28:32;;;;;;;19.82;10.70;;;;;;;6.73;86.97;101095.30;1687347;85;25485;-50
2023/04/08 06:30:59;;;;;;;17.80;9.68;;;;;;;7.10;86.04;101099.73;1687362;85;27341;-50
2023/04/08 06:33:26;;;;;;;14.95;9.03;;;;;;;7.48;85.59;101107.84;1680544;84;25604;-50
2023/04/08 06:36:04;;;;;;;14.20;8.53;;;;;;;7.82;84.63;101103.27;1687364;85;25571;-52
2023/04/08 06:38:32;;;;;;;13.95;9.88;;;;;;;8.18;82.95;101102.42;1702618;84;25686;-52
2023/04/08 06:41:04;;;;;;;17.57;9.70;;;;;;;8.50;81.60;101109.39;1687358;85;25424;-51
2023/04/08 06:43:31;;;;;;;14.30;8.70;;;;;;;8.79;80.50;101110.33;1702621;84;27319;-51
2023/04/08 06:45:58;;;;;;;15.53;9.55;;;;;;;9.12;80.12;101109.90;1687237;85;25672;-50
2023/04/08 06:48:29;;;;;;;14.15;9.50;;;;;;;9.42;79.26;101106.20;1702632;84;25533;-51
2023/04/08 06:50:57;;;;;;;15.18;9.28;;;;;;;9.77;78.60;101108.34;1687310;85;25685;-51
2023/04/08 06:53:25;;;;;;;14.23;8.80;;;;;;;10.14;77.62;101099.38;1702614;84;25498;-51
2023/04/08 06:55:52;;;;;;;13.13;8.90;;;;;;;10.48;75.96;101105.27;1687338;85;27872;-54
2023/04/08 06:58:19;;;;;;;13.62;9.70;;;;;;;10.83;76.11;101108.88;1702525;84;25406;-52
2023/04/08 07:00:46;;;;;;;13.18;8.25;;;;;;;11.06;73.88;101110.47;1687357;85;25598;-52
2023/04/08 07:03:13;;;;;;;10.95;7.60;;;;;;;11.33;73.06;101113.08;1702561;84;25625;-54
2023/04/08 07:05:41;;;;;;;10.40;7.42;;;;;;;11.57;71.29;101112.97;1687307;85;25570;-54
2023/04/08 07:08:08;;;;;;;10.55;7.75;;;;;;;11.71;69.74;101117.08;1702639;84;27345;-54
2023/04/08 07:10:35;;;;;;;12.13;8.53;;;;;;;11.99;69.36;101119.36;1687248;85;25585;-51
2023/04/08 07:13:02;;;;;;;11.83;8.23;;;;;;;12.29;69.51;101116.64;1702593;84;25592;-51
2023/04/08 07:15:29;;;;;;;10.78;8.33;;;;;;;12.60;68.90;101120.11;1687315;85;25624;-51
2023/04/08 07:17:56;;;;;;;10.30;8.63;;;;;;;12.86;68.01;101120.38;1680568;84;25499;-49
2023/04/08 07:20:24;;;;;;;12.40;9.58;;;;;;;13.23;67.02;101120.42;1687352;85;28354;-54
2023/04/08 07:22:52;;;;;;;12.50;9.45;;;;;;;13.45;66.14;101118.31;1702616;84;25469;-49
2023/04/08 07:25:19;;;;;;;13.80;9.28;;;;;;;13.78;66.06;101125.64;1702596;84;25466;-50
2023/04/08 07:27:46;;;;;;;12.90;9.95;;;;;;;14.19;65.91;101128.67;1687254;85;26205;-50
2023/04/08 07:30:13;;;;;;;12.47;9.48;;;;;;;14.54;64.46;101129.36;1702633;84;25590;-53
2023/04/08 07:32:39;;;;;;;10.78;9.55;;;;;;;14.92;63.91;101143.85;1687352;85;28016;-53
2023/04/08 07:35:07;;;;;;;11.75;9.43;;;;;;;14.99;62.14;101144.75;1680446;84;25747;-50
2023/04/08 07:37:33;;;;;;;11.60;9.38;;;;;;;15.20;61.88;101131.30;1651364;84;25600;-52
2023/04/08 07:40:00;;;;;;;11.48;8.98;;;;;;;15.50;60.87;101137.15;1687287;85;25694;-53
2023/04/08 07:42:27;;;;;;;12.37;9.08;;;;;;;15.69;60.30;101136.02;1702626;84;25619;-52
2023/04/08 07:44:54;;;;;;;9.83;8.83;;;;;;;16.04;60.19;101140.08;1687312;85;27334;-49
2023/04/08 07:47:21;;;;;;;9.45;8.43;;;;;;;16.34;59.28;101135.46;1702467;84;25519;-50
2023/04/08 07:49:48;;;;;;;10.30;8.25;;;;;;;16.62;57.89;101135.03;1687335;85;25469;-52
2023/04/08 07:52:15;;;;;;;9.68;7.97;;;;;;;16.94;55.65;101137.69;1702555;84;25627;-53
2023/04/08 07:54:42;;;;;;;10.18;8.00;;;;;;;17.22;56.61;101126.23;1687325;85;25495;-53
2023/04/08 07:57:09;;;;;;;7.97;7.17;;;;;;;17.54;55.70;101136.19;1702544;84;29461;-52
2023/04/08 07:59:36;;;;;;;8.95;7.60;;;;;;;17.74;54.85;101127.14;1687243;85;25645;-52
2023/04/08 08:02:03;;;;;;;9.18;7.60;;;;;;;17.96;54.42;101129.84;1702597;84;25641;-54
2023/04/08 08:04:31;;;;;;;10.00;7.83;;;;;;;18.22;53.51;101131.72;1687223;85;25639;-53
2023/04/08 08:06:57;;;;;;;9.28;8.13;;;;;;;18.47;53.69;101126.25;1702752;84;25640;-51
2023/04/08 08:09:27;;;;;;;8.85;7.12;;;;;;;18.80;52.87;101123.96;1687476;85;27505;-54
2023/04/08 08:11:53;;;;;;;11.08;7.72;;;;;;;19.10;51.87;101127.80;1702687;84;25474;-50
2023/04/08 08:14:21;;;;;;;10.00;7.60;;;;;;;19.30;50.65;101136.43;1687467;85;25646;-51
2023/04/08 08:16:48;;;;;;;7.90;7.10;;;;;;;19.56;50.57;101131.89;1702732;84;25743;-55
2023/04/08 08:19:15;;;;;;;8.35;7.47;;;;;;;19.72;49.41;101133.88;1687474;85;25583;-55
2023/04/08 08:21:41;;;;;;;8.78;7.55;;;;;;;19.86;48.00;101133.48;1702724;84;27438;-52
2023/04/08 08:24:08;;;;;;;7.80;7.03;;;;;;;19.95;48.12;101132.18;1665302;85;25599;-50
2023/04/08 08:26:35;;;;;;;8.15;7.37;;;;;;;19.92;45.84;101131.50;1702681;83;25568;-52
2023/04/08 08:29:03;;;;;;;8.90;7.83;;;;;;;20.01;47.45;101129.17;1702673;84;25880;-54
2023/04/08 08:31:29;;;;;;;8.28;7.42;;;;;;;20.31;47.60;101128.14;1687489;85;25591;-51
2023/04/08 08:33:57;;;;;;;8.50;7.65;;;;;;;20.53;46.38;101126.70;1702694;84;27384;-57
2023/04/08 08:36:24;;;;;;;7.95;7.15;;;;;;;20.73;45.89;101126.81;1687364;85;25865;-53
2023/04/08 08:38:52;;;;;;;8.25;7.42;;;;;;;20.86;45.86;101124.95;1680669;84;25697;-53
2023/04/08 08:41:19;;;;;;;8.00;7.20;;;;;;;21.14;44.71;101117.09;1687407;85;26357;-51
2023/04/08 08:43:46;;;;;;;8.40;7.60;;;;;;;21.32;44.56;101120.78;1702736;84;25626;-51
2023/04/08 08:46:16;;;;;;;9.33;7.87;;;;;;;21.42;43.86;101128.48;1687468;85;27388;-54
2023/04/08 08:48:43;;;;;;;9.28;7.03;;;;;;;21.52;43.40;101130.67;1702707;83;25487;-54
2023/04/08 08:51:11;;;;;;;8.38;7.58;;;;;;;21.76;43.02;101123.23;1687467;85;25477;-51
2023/04/08 08:53:38;;;;;;;9.53;7.35;;;;;;;22.01;42.38;101117.61;1702699;84;25675;-51
2023/04/08 08:56:08;;;;;;;7.75;6.85;;;;;;;22.15;42.17;101117.62;1687504;85;25584;-54
2023/04/08 08:58:35;;;;;;;7.83;7.03;;;;;;;22.24;39.78;101114.05;1681301;84;27356;-54
2023/04/08 09:01:01;;;;;;;8.38;7.35;;;;;;;22.22;41.08;101116.38;1702588;84;25435;-50
2023/04/08 09:03:28;;;;;;;8.00;6.20;;;;;;;22.48;41.59;101116.22;1687404;85;25529;-49
2023/04/08 09:05:57;;;;;;;7.17;6.53;;;;;;;22.63;40.49;101121.34;1680322;84;25631;-50
2023/04/08 09:08:33;;;;;;;7.78;6.97;;;;;;;22.80;40.35;101118.63;1642556;85;25566;-50
2023/04/08 09:11:18;;;;;;;9.28;7.20;;;;;;;23.12;40.70;101113.01;1702736;84;28089;-50
2023/04/08 09:13:46;;;;;;;8.25;6.90;;;;;;;23.50;39.95;101119.95;1662583;85;25699;-52
2023/04/08 09:16:18;;;;;;;7.50;6.80;;;;;;;23.54;38.64;101122.75;1702685;83;25628;-50
2023/04/08 09:18:48;;;;;;;9.43;6.58;;;;;;;23.37;37.27;101122.76;1687372;85;25605;-51
2023/04/08 09:21:16;;;;;;;7.45;6.75;;;;;;;23.35;38.30;101116.83;1680653;84;25438;-51
2023/04/08 09:23:47;;;;;;;7.50;6.50;;;;;;;23.28;37.88;101127.19;1687550;85;27347;-51
2023/04/08 09:26:23;;;;;;;7.70;5.92;;;;;;;23.55;38.10;101124.32;1702691;84;25638;-51
2023/04/08 09:29:08;;;;;;;6.30;5.80;;;;;;;23.76;37.03;101129.30;1687432;85;25448;-51
2023/04/08 09:31:41;;;;;;;7.53;6.78;;;;;;;23.73;36.73;101132.22;1702672;84;26195;-51
2023/04/08 09:34:19;;;;;;;7.42;6.53;;;;;;;23.79;36.83;101133.47;1687454;85;25541;-52
2023/04/08 09:36:46;;;;;;;7.47;6.75;;;;;;;23.88;36.92;101131.81;1702644;84;27408;-51
2023/04/08 09:39:13;;;;;;;6.90;6.20;;;;;;;23.86;36.17;101129.42;1687315;85;25466;-51
2023/04/08 09:41:42;;;;;;;7.35;6.05;;;;;;;24.04;36.75;101124.08;1702681;84;25584;-51
2023/04/08 09:44:11;;;;;;;7.10;6.40;;;;;;;24.18;35.68;101125.37;1687494;85;26158;-51
2023/04/08 09:46:59;;;;;;;6.78;6.08;;;;;;;24.09;35.84;101122.91;1702796;84;25419;-54
2023/04/08 09:49:35;;;;;;;;;;;;;;;24.38;36.10;101121.77;1703837;84;27988;-51
2023/04/08 09:52:26;;;;;;;8.63;6.42;;;;;;;24.58;35.37;101116.80;1684954;85;25645;-54
2023/04/08 09:55:03;;;;;;;6.70;6.00;;;;;;;24.71;35.50;101118.08;1702284;84;25422;-51
2023/04/08 09:58:07;;;;;;;6.58;5.87;;;;;;;24.85;34.70;101118.74;1665598;85;25614;-53
2023/04/08 10:00:42;;;;;;;6.92;6.22;;;;;;;25.20;34.42;101118.72;1701824;84;25411;-52
2023/04/08 10:03:22;;;;;;;7.08;6.33;;;;;;;25.49;34.82;101119.63;1687072;85;27263;-51
2023/04/08 10:05:52;;;;;;;7.40;6.00;;;;;;;25.71;33.63;101114.94;1702445;83;25573;-51
2023/04/08 10:08:20;;;;;;;7.45;6.33;;;;;;;25.71;32.22;101117.70;1665325;85;25450;-51
2023/04/08 10:10:46;;;;;;;6.97;6.37;;;;;;;25.30;32.84;101113.03;1702693;84;25626;-52
2023/04/08 10:13:14;;;;;;;6.87;6.17;;;;;;;25.47;33.14;101115.66;1687401;85;25638;-53
2023/04/08 10:15:42;;;;;;;7.20;6.60;;;;;;;25.68;33.18;101110.17;1702762;84;27959;-51
2023/04/08 10:18:17;;;;;;;7.35;6.65;;;;;;;26.03;32.59;101111.44;1687314;85;25720;-54
2023/04/08 10:20:46;;;;;;;7.17;6.20;;;;;;;26.35;33.41;101109.23;1702705;83;25560;-51
2023/04/08 10:23:16;;;;;;;7.08;6.37;;;;;;;26.91;32.69;101094.87;1680524;84;26211;-53
2023/04/08 10:25:48;;;;;;;6.47;5.87;;;;;;;27.24;32.68;101094.13;1665390;85;25494;-52
2023/04/08 10:28:21;;;;;;;6.87;6.28;;;;;;;27.05;30.80;101100.36;1702565;84;27391;-51
2023/04/08 10:30:50;;;;;;;6.83;5.92;;;;;;;26.36;30.98;101098.34;1687300;85;25593;-55
2023/04/08 10:33:24;;;;;;;6.40;5.80;;;;;;;26.33;30.93;101102.52;1702744;84;35116;-56
2023/04/08 10:36:01;;;;;;;6.67;6.03;;;;;;;26.49;31.38;101097.32;1687432;85;25635;-53
2023/04/08 10:38:28;;;;;;;7.22;5.90;;;;;;;26.91;31.05;101088.72;1701610;84;25482;-54
2023/04/08 10:40:54;;;;;;;6.40;5.80;;;;;;;27.19;31.26;101098.92;1687403;85;27291;-56
2023/04/08 10:43:23;;;;;;;6.50;5.85;;;;;;;27.39;30.56;101092.88;1702564;84;25640;-52
2023/04/08 10:45:52;;;;;;;7.03;6.33;;;;;;;26.78;30.43;101095.32;1687522;85;25424;-54
2023/04/08 10:48:28;;;;;;;6.78;6.08;;;;;;;26.95;30.86;101095.64;1702604;84;26215;-50
2023/04/08 10:50:59;;;;;;;6.42;5.60;;;;;;;27.13;29.42;101089.42;1685678;85;25640;-54
2023/04/08 10:53:32;;;;;;;6.50;5.90;;;;;;;26.59;29.28;101090.17;1702633;84;27389;-55
2023/04/08 10:56:17;;;;;;;9.08;6.70;;;;;;;26.39;29.51;101086.46;1702574;84;25633;-54
2023/04/08 10:58:58;;;;;;;6.40;5.80;;;;;;;26.30;29.43;101084.67;1687384;85;25506;-55
2023/04/08 11:01:26;;;;;;;66.17;62.30;;;;;;;26.64;30.19;101077.31;1702626;84;25681;-54
2023/04/08 11:03:53;;;;;;;65.30;61.50;;;;;;;26.87;29.84;101076.04;1702909;84;25480;-56
2023/04/08 11:06:20;;;;;;;67.45;62.93;;;;;;;26.70;29.29;101076.30;1716462;83;27443;-57
2023/04/08 11:08:48;;;;;;;65.22;61.42;;;;;;;26.93;29.76;101076.61;1756636;81;25777;-53
2023/04/08 11:11:15;;;;;;;67.97;63.95;;;;;;;27.29;29.65;101067.35;1723088;83;25420;-52
2023/04/08 11:13:45;;;;;;;65.50;61.70;;;;;;;27.62;29.81;101064.58;1756749;81;25658;-55
2023/04/08 11:16:13;;;;;;;62.10;58.35;;;;;;;28.00;28.81;101055.56;1749823;81;25601;-54
2023/04/08 11:18:40;;;;;;;16.42;15.05;;;;;;;26.94;28.61;100962.23;1725254;81;28031;-54
2023/04/08 11:21:11;;;;;;;8.80;5.97;;;;;;;27.53;29.39;101073.95;1756683;81;25643;-58
2023/04/08 11:23:38;;;;;;;6.80;5.90;;;;;;;27.55;29.29;101074.35;1749847;81;25485;-55
2023/04/08 11:26:05;;;;;;;6.60;5.30;;;;;;;27.70;29.41;101070.85;1716429;83;26244;-55
2023/04/08 11:28:34;;;;;;;6.03;5.42;;;;;;;27.83;28.74;101070.56;1749761;81;25566;-57